KGTU

Georgetown Municipal Airport

Georgetown, Texas, USA
METAR KGTU 231556Z 02004KT 10SM OVC007 08/07 A3021 RMK AO2 CIG 003V007 SLP234 T00780072
Observed Flight Rules
Feb-23 @ 15:56 UTC (35 minutes ago) Instrument Flight Rules
Wind Visibility Clouds
20° at 4 knots 10 miles
  • Overcast at 700' AGL
Temperatures Readings
Current 8°C / 46°F
Dewpoint 7°C / 45°F
Humidity 93%
Altimeter 30.21" Hg
Pressure 1023.4 hPa
Elevation 240
METAR KGTU 231556Z 02004KT 10SM OVC007 08/07 A3021 RMK AO2 CIG 003V007 SLP234 T00780072
Observed Flight Rules
Feb-23 @ 15:56 UTC
(35 minutes ago)
IFR
Wind Visibility
20° at 4 knots 10 miles
Clouds
  • Overcast at 700' AGL
Temperature Dewpoint
8°C / 46°F 7°C / 45°F
Humidity Altimeter Pressure
93% 30.21" Hg 1023.4 hPa